Pagrindinis puslapis
METAR-TAF:

METAR-TAF

Oro uostai :

Dubajaus tarptautinis oro uostas

Dubajus, Jungtiniai Arabų Emyratai

platuma: 25-15-10N, ilguma: 055-21-52E, Aukštis: 8 m

Dabartinis oras

Ataskaita buvo paskelbta 29 minutes, ne 04:00 UTC
Vėjas 3 kt iš Pietų
Temperatūra 35°C
Drėgmė 23%
Slėgis 1003 hPa
Matomumas 10 km arba daugiau
nėra debesų žemiau 1500 m ir nėra kamuolinių lietaus debesų

METAR: OMDB 290400Z 18003KT CAVOK 35/11 Q1003 NOSIG

Laikas: 08:29 (04:29 UTC)

Prognozė

Ataskaita buvo paskelbta 5 valandos ir 26 minutes, ne 23:03 UTC
Prognozė galioja nuo 29 metu 00 UTC su 30 metu 06 UTC
Vėjas 9 kt iš Pietų
Matomumas 10 km arba daugiau
nėra debesų žemiau 1500 m ir nėra kamuolinių lietaus debesų
Tapsmas
nuo 29 metu 08 UTC su 29 metu 10 UTC
Vėjas 13 kt iš Šiaurės Vakarų
Tapsmas
nuo 29 metu 16 UTC su 29 metu 18 UTC
Vėjas 5 kt iš Šiaurės Rytų
Tapsmas
nuo 30 metu 03 UTC su 30 metu 05 UTC
Vėjas 12 kt iš Pietų

TAF: OMDB 282303Z 2900/3006 17009KT CAVOK BECMG 2908/2910 32013KT BECMG 2916/2918 04005KT BECMG 3003/3005 17012KT

Orai ataskaitas ir orų prognozės (METAR, TAF).

turimą stotys yra geltonos ir raudonos taškus žemėlapyje.

Perkelti pele per norėdami pamatyti stoties vardą.

Tada spustelėkite, norėdami matyti oro stebėjimo ir prognozės.

Norėdami pakeisti žemėlapį: spustelėkite ant žalios mygtukų su juodo kryžiaus žemyn,; žalią mygtuką su brūkšneliu, jei norite nutolinti; arba žalių rodyklių gretimoms žemėlapius.


METAR-TAF: